sensor_id;sensor_type;location;lat;lon;timestamp;P1;durP1;ratioP1;P2;durP2;ratioP2
26413;SDS011;14108;53.668;10.288;2022-11-15T00:00:56;49.97;;;27.42;;
26413;SDS011;14108;53.668;10.288;2022-11-15T00:03:24;51.58;;;27.05;;
26413;SDS011;14108;53.668;10.288;2022-11-15T00:05:53;53.45;;;26.55;;
26413;SDS011;14108;53.668;10.288;2022-11-15T00:08:20;51.00;;;27.30;;
26413;SDS011;14108;53.668;10.288;2022-11-15T00:10:54;50.17;;;27.33;;
26413;SDS011;14108;53.668;10.288;2022-11-15T00:13:22;48.80;;;26.42;;
26413;SDS011;14108;53.668;10.288;2022-11-15T00:15:49;49.08;;;26.48;;
26413;SDS011;14108;53.668;10.288;2022-11-15T00:18:16;48.70;;;26.10;;
26413;SDS011;14108;53.668;10.288;2022-11-15T00:20:44;46.83;;;25.58;;
26413;SDS011;14108;53.668;10.288;2022-11-15T00:23:11;48.00;;;27.05;;
26413;SDS011;14108;53.668;10.288;2022-11-15T00:25:38;47.28;;;24.87;;
26413;SDS011;14108;53.668;10.288;2022-11-15T00:28:06;52.30;;;28.87;;
26413;SDS011;14108;53.668;10.288;2022-11-15T00:30:33;52.95;;;28.42;;
26413;SDS011;14108;53.668;10.288;2022-11-15T00:33:02;50.12;;;26.77;;
26413;SDS011;14108;53.668;10.288;2022-11-15T00:35:31;47.62;;;25.45;;
26413;SDS011;14108;53.668;10.288;2022-11-15T00:37:59;50.25;;;26.30;;
26413;SDS011;14108;53.668;10.288;2022-11-15T00:40:26;45.38;;;24.45;;
26413;SDS011;14108;53.668;10.288;2022-11-15T00:42:54;46.92;;;25.33;;
26413;SDS011;14108;53.668;10.288;2022-11-15T00:45:21;50.75;;;27.23;;
26413;SDS011;14108;53.668;10.288;2022-11-15T00:47:49;55.20;;;28.35;;
26413;SDS011;14108;53.668;10.288;2022-11-15T00:50:16;51.13;;;26.80;;
26413;SDS011;14108;53.668;10.288;2022-11-15T00:52:44;48.08;;;26.33;;
26413;SDS011;14108;53.668;10.288;2022-11-15T00:55:13;50.90;;;26.75;;
26413;SDS011;14108;53.668;10.288;2022-11-15T00:57:41;50.30;;;28.08;;
26413;SDS011;14108;53.668;10.288;2022-11-15T01:00:09;49.75;;;26.73;;
26413;SDS011;14108;53.668;10.288;2022-11-15T01:02:37;51.25;;;26.65;;
26413;SDS011;14108;53.668;10.288;2022-11-15T01:05:05;53.33;;;28.38;;
26413;SDS011;14108;53.668;10.288;2022-11-15T01:07:33;51.20;;;26.67;;
26413;SDS011;14108;53.668;10.288;2022-11-15T01:10:01;48.47;;;25.62;;
26413;SDS011;14108;53.668;10.288;2022-11-15T01:12:29;45.17;;;26.23;;
26413;SDS011;14108;53.668;10.288;2022-11-15T01:14:56;44.47;;;23.20;;
26413;SDS011;14108;53.668;10.288;2022-11-15T01:17:23;46.65;;;25.92;;
26413;SDS011;14108;53.668;10.288;2022-11-15T01:19:50;47.62;;;26.02;;
26413;SDS011;14108;53.668;10.288;2022-11-15T01:22:17;44.13;;;23.02;;
26413;SDS011;14108;53.668;10.288;2022-11-15T01:24:45;44.55;;;24.63;;
26413;SDS011;14108;53.668;10.288;2022-11-15T01:27:12;37.95;;;21.85;;
26413;SDS011;14108;53.668;10.288;2022-11-15T01:29:39;42.00;;;22.62;;
26413;SDS011;14108;53.668;10.288;2022-11-15T01:32:06;41.50;;;23.87;;
26413;SDS011;14108;53.668;10.288;2022-11-15T01:34:34;47.13;;;24.48;;
26413;SDS011;14108;53.668;10.288;2022-11-15T01:37:01;51.95;;;24.92;;
26413;SDS011;14108;53.668;10.288;2022-11-15T01:39:28;53.42;;;26.37;;
26413;SDS011;14108;53.668;10.288;2022-11-15T01:41:55;42.20;;;24.08;;
26413;SDS011;14108;53.668;10.288;2022-11-15T01:44:38;46.55;;;25.23;;
26413;SDS011;14108;53.668;10.288;2022-11-15T01:47:08;47.55;;;25.48;;
26413;SDS011;14108;53.668;10.288;2022-11-15T01:49:39;45.85;;;25.58;;
26413;SDS011;14108;53.668;10.288;2022-11-15T01:52:11;43.03;;;24.25;;
26413;SDS011;14108;53.668;10.288;2022-11-15T01:54:43;43.90;;;23.83;;
26413;SDS011;14108;53.668;10.288;2022-11-15T01:57:10;42.92;;;23.77;;
26413;SDS011;14108;53.668;10.288;2022-11-15T01:59:39;44.22;;;24.15;;
26413;SDS011;14108;53.668;10.288;2022-11-15T02:02:10;43.03;;;24.20;;
26413;SDS011;14108;53.668;10.288;2022-11-15T02:04:39;45.85;;;24.45;;
26413;SDS011;14108;53.668;10.288;2022-11-15T02:07:08;44.20;;;23.12;;
26413;SDS011;14108;53.668;10.288;2022-11-15T02:09:38;40.12;;;22.13;;
26413;SDS011;14108;53.668;10.288;2022-11-15T02:12:06;43.08;;;23.02;;
26413;SDS011;14108;53.668;10.288;2022-11-15T02:14:35;42.60;;;23.17;;
26413;SDS011;14108;53.668;10.288;2022-11-15T02:17:12;44.72;;;23.65;;
26413;SDS011;14108;53.668;10.288;2022-11-15T02:20:14;44.35;;;23.58;;
26413;SDS011;14108;53.668;10.288;2022-11-15T02:23:15;38.35;;;22.60;;
26413;SDS011;14108;53.668;10.288;2022-11-15T02:26:10;40.38;;;22.17;;
26413;SDS011;14108;53.668;10.288;2022-11-15T02:28:56;35.08;;;19.85;;
26413;SDS011;14108;53.668;10.288;2022-11-15T02:31:28;42.28;;;23.12;;
26413;SDS011;14108;53.668;10.288;2022-11-15T02:34:04;43.63;;;24.77;;
26413;SDS011;14108;53.668;10.288;2022-11-15T02:36:39;41.30;;;21.98;;
26413;SDS011;14108;53.668;10.288;2022-11-15T02:41:41;42.42;;;22.98;;
26413;SDS011;14108;53.668;10.288;2022-11-15T02:44:15;41.17;;;21.87;;
26413;SDS011;14108;53.668;10.288;2022-11-15T02:49:34;40.08;;;21.45;;
26413;SDS011;14108;53.668;10.288;2022-11-15T02:52:03;43.25;;;23.50;;
26413;SDS011;14108;53.668;10.288;2022-11-15T02:54:31;41.00;;;21.92;;
26413;SDS011;14108;53.668;10.288;2022-11-15T02:57:00;37.38;;;21.23;;
26413;SDS011;14108;53.668;10.288;2022-11-15T02:59:35;39.95;;;22.00;;
26413;SDS011;14108;53.668;10.288;2022-11-15T03:02:18;45.28;;;24.52;;
26413;SDS011;14108;53.668;10.288;2022-11-15T03:04:54;39.85;;;22.20;;
26413;SDS011;14108;53.668;10.288;2022-11-15T03:07:25;43.03;;;23.42;;
26413;SDS011;14108;53.668;10.288;2022-11-15T03:09:56;42.33;;;21.87;;
26413;SDS011;14108;53.668;10.288;2022-11-15T03:12:33;46.47;;;24.40;;
26413;SDS011;14108;53.668;10.288;2022-11-15T03:15:08;48.83;;;22.75;;
26413;SDS011;14108;53.668;10.288;2022-11-15T03:17:43;38.10;;;21.20;;
26413;SDS011;14108;53.668;10.288;2022-11-15T03:20:15;40.70;;;23.10;;
26413;SDS011;14108;53.668;10.288;2022-11-15T03:22:44;42.70;;;21.75;;
26413;SDS011;14108;53.668;10.288;2022-11-15T03:25:15;48.58;;;26.70;;
26413;SDS011;14108;53.668;10.288;2022-11-15T03:27:46;39.15;;;21.73;;
26413;SDS011;14108;53.668;10.288;2022-11-15T03:30:17;40.65;;;22.52;;
26413;SDS011;14108;53.668;10.288;2022-11-15T03:32:46;41.67;;;21.65;;
26413;SDS011;14108;53.668;10.288;2022-11-15T03:35:16;37.42;;;21.27;;
26413;SDS011;14108;53.668;10.288;2022-11-15T03:37:48;39.20;;;21.23;;
26413;SDS011;14108;53.668;10.288;2022-11-15T03:40:18;44.47;;;23.65;;
26413;SDS011;14108;53.668;10.288;2022-11-15T03:42:53;43.83;;;23.25;;
26413;SDS011;14108;53.668;10.288;2022-11-15T03:45:27;38.15;;;22.00;;
26413;SDS011;14108;53.668;10.288;2022-11-15T03:47:58;39.15;;;23.25;;
26413;SDS011;14108;53.668;10.288;2022-11-15T03:50:28;43.72;;;23.85;;
26413;SDS011;14108;53.668;10.288;2022-11-15T03:52:56;45.90;;;24.02;;
26413;SDS011;14108;53.668;10.288;2022-11-15T03:55:24;44.88;;;24.15;;
26413;SDS011;14108;53.668;10.288;2022-11-15T03:57:52;46.42;;;24.87;;
26413;SDS011;14108;53.668;10.288;2022-11-15T04:00:21;45.60;;;24.23;;
26413;SDS011;14108;53.668;10.288;2022-11-15T04:02:49;43.70;;;24.50;;
26413;SDS011;14108;53.668;10.288;2022-11-15T04:05:17;49.30;;;25.17;;
26413;SDS011;14108;53.668;10.288;2022-11-15T04:07:44;43.10;;;24.08;;
26413;SDS011;14108;53.668;10.288;2022-11-15T04:10:12;42.70;;;22.85;;
26413;SDS011;14108;53.668;10.288;2022-11-15T04:12:40;38.40;;;21.23;;
26413;SDS011;14108;53.668;10.288;2022-11-15T04:15:11;46.88;;;23.80;;
26413;SDS011;14108;53.668;10.288;2022-11-15T04:17:42;42.83;;;22.85;;
26413;SDS011;14108;53.668;10.288;2022-11-15T04:20:12;42.62;;;21.12;;
26413;SDS011;14108;53.668;10.288;2022-11-15T04:22:59;41.37;;;22.17;;
26413;SDS011;14108;53.668;10.288;2022-11-15T04:25:45;35.90;;;19.80;;
26413;SDS011;14108;53.668;10.288;2022-11-15T04:28:16;36.67;;;21.10;;
26413;SDS011;14108;53.668;10.288;2022-11-15T04:30:44;39.70;;;22.15;;
26413;SDS011;14108;53.668;10.288;2022-11-15T04:33:11;44.60;;;23.85;;
26413;SDS011;14108;53.668;10.288;2022-11-15T04:35:39;34.75;;;20.30;;
26413;SDS011;14108;53.668;10.288;2022-11-15T04:38:08;39.47;;;20.17;;
26413;SDS011;14108;53.668;10.288;2022-11-15T04:40:37;39.30;;;19.37;;
26413;SDS011;14108;53.668;10.288;2022-11-15T04:43:04;36.25;;;20.80;;
26413;SDS011;14108;53.668;10.288;2022-11-15T04:45:32;38.47;;;22.20;;
26413;SDS011;14108;53.668;10.288;2022-11-15T04:47:59;36.92;;;20.60;;
26413;SDS011;14108;53.668;10.288;2022-11-15T04:50:26;31.87;;;17.92;;
26413;SDS011;14108;53.668;10.288;2022-11-15T04:52:55;39.33;;;20.27;;
26413;SDS011;14108;53.668;10.288;2022-11-15T04:55:23;35.60;;;20.37;;
26413;SDS011;14108;53.668;10.288;2022-11-15T04:57:57;38.85;;;21.55;;
26413;SDS011;14108;53.668;10.288;2022-11-15T05:00:25;38.75;;;19.73;;
26413;SDS011;14108;53.668;10.288;2022-11-15T05:02:54;33.53;;;18.48;;
26413;SDS011;14108;53.668;10.288;2022-11-15T05:05:39;41.53;;;21.40;;
26413;SDS011;14108;53.668;10.288;2022-11-15T05:08:07;44.20;;;22.98;;
26413;SDS011;14108;53.668;10.288;2022-11-15T05:10:35;39.47;;;22.15;;
26413;SDS011;14108;53.668;10.288;2022-11-15T05:13:02;41.53;;;22.17;;
26413;SDS011;14108;53.668;10.288;2022-11-15T05:15:29;37.90;;;22.73;;
26413;SDS011;14108;53.668;10.288;2022-11-15T05:18:00;38.83;;;21.37;;
26413;SDS011;14108;53.668;10.288;2022-11-15T05:20:27;36.90;;;20.10;;
26413;SDS011;14108;53.668;10.288;2022-11-15T05:22:54;34.55;;;20.77;;
26413;SDS011;14108;53.668;10.288;2022-11-15T05:25:22;35.63;;;20.33;;
26413;SDS011;14108;53.668;10.288;2022-11-15T05:27:50;37.63;;;21.65;;
26413;SDS011;14108;53.668;10.288;2022-11-15T05:30:17;40.65;;;22.73;;
26413;SDS011;14108;53.668;10.288;2022-11-15T05:32:45;43.45;;;24.15;;
26413;SDS011;14108;53.668;10.288;2022-11-15T05:35:15;41.83;;;22.77;;
26413;SDS011;14108;53.668;10.288;2022-11-15T05:37:48;37.60;;;21.73;;
26413;SDS011;14108;53.668;10.288;2022-11-15T05:40:16;40.20;;;21.60;;
26413;SDS011;14108;53.668;10.288;2022-11-15T05:42:43;32.95;;;19.08;;
26413;SDS011;14108;53.668;10.288;2022-11-15T05:45:11;38.60;;;21.27;;
26413;SDS011;14108;53.668;10.288;2022-11-15T05:47:39;36.38;;;21.17;;
26413;SDS011;14108;53.668;10.288;2022-11-15T05:50:09;36.28;;;21.52;;
26413;SDS011;14108;53.668;10.288;2022-11-15T05:52:40;35.03;;;20.25;;
26413;SDS011;14108;53.668;10.288;2022-11-15T05:55:08;38.08;;;21.85;;
26413;SDS011;14108;53.668;10.288;2022-11-15T05:57:36;40.90;;;22.37;;
26413;SDS011;14108;53.668;10.288;2022-11-15T06:00:04;38.17;;;21.12;;
26413;SDS011;14108;53.668;10.288;2022-11-15T06:02:34;41.97;;;22.48;;
26413;SDS011;14108;53.668;10.288;2022-11-15T06:05:02;38.40;;;20.55;;
26413;SDS011;14108;53.668;10.288;2022-11-15T06:07:30;43.35;;;21.83;;
26413;SDS011;14108;53.668;10.288;2022-11-15T06:09:57;34.90;;;20.25;;
26413;SDS011;14108;53.668;10.288;2022-11-15T06:12:24;41.03;;;22.15;;
26413;SDS011;14108;53.668;10.288;2022-11-15T06:14:52;39.38;;;21.65;;
26413;SDS011;14108;53.668;10.288;2022-11-15T06:17:19;37.30;;;20.27;;
26413;SDS011;14108;53.668;10.288;2022-11-15T06:19:46;38.78;;;21.48;;
26413;SDS011;14108;53.668;10.288;2022-11-15T06:22:13;40.12;;;21.73;;
26413;SDS011;14108;53.668;10.288;2022-11-15T06:24:40;37.85;;;21.90;;
26413;SDS011;14108;53.668;10.288;2022-11-15T06:27:10;32.92;;;20.52;;
26413;SDS011;14108;53.668;10.288;2022-11-15T06:29:37;35.28;;;20.17;;
26413;SDS011;14108;53.668;10.288;2022-11-15T06:32:04;33.55;;;20.88;;
26413;SDS011;14108;53.668;10.288;2022-11-15T06:34:31;32.38;;;18.77;;
26413;SDS011;14108;53.668;10.288;2022-11-15T06:36:59;32.17;;;18.95;;
26413;SDS011;14108;53.668;10.288;2022-11-15T06:39:26;32.85;;;19.10;;
26413;SDS011;14108;53.668;10.288;2022-11-15T06:41:53;32.78;;;18.15;;
26413;SDS011;14108;53.668;10.288;2022-11-15T06:44:20;34.65;;;20.12;;
26413;SDS011;14108;53.668;10.288;2022-11-15T06:46:47;40.00;;;20.00;;
26413;SDS011;14108;53.668;10.288;2022-11-15T06:49:15;31.67;;;20.20;;
26413;SDS011;14108;53.668;10.288;2022-11-15T06:51:42;30.98;;;18.25;;
26413;SDS011;14108;53.668;10.288;2022-11-15T06:54:09;36.47;;;20.52;;
26413;SDS011;14108;53.668;10.288;2022-11-15T06:56:36;36.85;;;19.05;;
26413;SDS011;14108;53.668;10.288;2022-11-15T06:59:04;32.80;;;19.20;;
26413;SDS011;14108;53.668;10.288;2022-11-15T07:01:31;34.03;;;20.62;;
26413;SDS011;14108;53.668;10.288;2022-11-15T07:03:58;34.83;;;19.67;;
26413;SDS011;14108;53.668;10.288;2022-11-15T07:06:25;35.67;;;20.12;;
26413;SDS011;14108;53.668;10.288;2022-11-15T07:08:52;36.55;;;20.80;;
26413;SDS011;14108;53.668;10.288;2022-11-15T07:11:20;31.02;;;18.40;;
26413;SDS011;14108;53.668;10.288;2022-11-15T07:13:47;31.37;;;18.65;;
26413;SDS011;14108;53.668;10.288;2022-11-15T07:16:14;33.42;;;19.62;;
26413;SDS011;14108;53.668;10.288;2022-11-15T07:18:41;30.25;;;17.87;;
26413;SDS011;14108;53.668;10.288;2022-11-15T07:21:09;32.78;;;19.17;;
26413;SDS011;14108;53.668;10.288;2022-11-15T07:23:37;33.35;;;19.27;;
26413;SDS011;14108;53.668;10.288;2022-11-15T07:26:05;32.85;;;19.58;;
26413;SDS011;14108;53.668;10.288;2022-11-15T07:28:33;34.80;;;18.73;;
26413;SDS011;14108;53.668;10.288;2022-11-15T07:33:37;30.35;;;17.20;;
26413;SDS011;14108;53.668;10.288;2022-11-15T07:36:05;33.78;;;19.05;;
26413;SDS011;14108;53.668;10.288;2022-11-15T07:38:34;32.70;;;19.20;;
26413;SDS011;14108;53.668;10.288;2022-11-15T07:41:03;32.03;;;18.42;;
26413;SDS011;14108;53.668;10.288;2022-11-15T07:43:31;35.45;;;19.20;;
26413;SDS011;14108;53.668;10.288;2022-11-15T07:46:03;33.40;;;19.05;;
26413;SDS011;14108;53.668;10.288;2022-11-15T07:48:31;33.97;;;18.48;;
26413;SDS011;14108;53.668;10.288;2022-11-15T07:50:58;31.15;;;18.37;;
26413;SDS011;14108;53.668;10.288;2022-11-15T07:53:25;30.98;;;18.35;;
26413;SDS011;14108;53.668;10.288;2022-11-15T07:55:53;36.22;;;19.42;;
26413;SDS011;14108;53.668;10.288;2022-11-15T07:58:20;32.35;;;17.95;;
26413;SDS011;14108;53.668;10.288;2022-11-15T08:00:47;29.67;;;18.08;;
26413;SDS011;14108;53.668;10.288;2022-11-15T08:03:15;30.65;;;17.73;;
26413;SDS011;14108;53.668;10.288;2022-11-15T08:05:43;30.70;;;18.60;;
26413;SDS011;14108;53.668;10.288;2022-11-15T08:08:15;31.20;;;17.80;;
26413;SDS011;14108;53.668;10.288;2022-11-15T08:10:43;28.62;;;17.67;;
26413;SDS011;14108;53.668;10.288;2022-11-15T08:13:10;27.70;;;17.05;;
26413;SDS011;14108;53.668;10.288;2022-11-15T08:15:38;30.75;;;18.15;;
26413;SDS011;14108;53.668;10.288;2022-11-15T08:18:08;29.92;;;18.27;;
26413;SDS011;14108;53.668;10.288;2022-11-15T08:20:37;31.60;;;18.67;;
26413;SDS011;14108;53.668;10.288;2022-11-15T08:23:05;28.50;;;17.25;;
26413;SDS011;14108;53.668;10.288;2022-11-15T08:25:42;27.67;;;17.42;;
26413;SDS011;14108;53.668;10.288;2022-11-15T08:28:10;28.70;;;17.40;;
26413;SDS011;14108;53.668;10.288;2022-11-15T08:30:38;27.62;;;16.87;;
26413;SDS011;14108;53.668;10.288;2022-11-15T08:33:09;29.83;;;17.95;;
26413;SDS011;14108;53.668;10.288;2022-11-15T08:35:38;30.25;;;18.27;;
26413;SDS011;14108;53.668;10.288;2022-11-15T08:38:05;27.87;;;16.30;;
26413;SDS011;14108;53.668;10.288;2022-11-15T08:40:32;27.20;;;15.50;;
26413;SDS011;14108;53.668;10.288;2022-11-15T08:42:59;26.42;;;16.37;;
26413;SDS011;14108;53.668;10.288;2022-11-15T08:45:28;31.20;;;17.85;;
26413;SDS011;14108;53.668;10.288;2022-11-15T08:47:55;27.95;;;16.30;;
26413;SDS011;14108;53.668;10.288;2022-11-15T08:50:22;28.27;;;16.55;;
26413;SDS011;14108;53.668;10.288;2022-11-15T08:52:50;28.38;;;16.90;;
26413;SDS011;14108;53.668;10.288;2022-11-15T08:55:17;28.50;;;17.30;;
26413;SDS011;14108;53.668;10.288;2022-11-15T08:57:45;33.42;;;16.70;;
26413;SDS011;14108;53.668;10.288;2022-11-15T09:00:14;31.58;;;16.48;;
26413;SDS011;14108;53.668;10.288;2022-11-15T09:02:42;25.30;;;15.40;;
26413;SDS011;14108;53.668;10.288;2022-11-15T09:05:10;26.67;;;16.30;;
26413;SDS011;14108;53.668;10.288;2022-11-15T09:07:37;30.52;;;17.30;;
26413;SDS011;14108;53.668;10.288;2022-11-15T09:10:05;23.65;;;15.15;;
26413;SDS011;14108;53.668;10.288;2022-11-15T09:12:34;27.45;;;15.77;;
26413;SDS011;14108;53.668;10.288;2022-11-15T09:15:01;23.67;;;15.00;;
26413;SDS011;14108;53.668;10.288;2022-11-15T09:17:37;27.48;;;15.95;;
26413;SDS011;14108;53.668;10.288;2022-11-15T09:20:06;25.98;;;14.98;;
26413;SDS011;14108;53.668;10.288;2022-11-15T09:22:35;25.50;;;14.87;;
26413;SDS011;14108;53.668;10.288;2022-11-15T09:25:05;27.50;;;15.43;;
26413;SDS011;14108;53.668;10.288;2022-11-15T09:27:33;25.67;;;14.82;;
26413;SDS011;14108;53.668;10.288;2022-11-15T09:30:01;24.77;;;15.18;;
26413;SDS011;14108;53.668;10.288;2022-11-15T09:32:29;24.48;;;15.10;;
26413;SDS011;14108;53.668;10.288;2022-11-15T09:34:56;27.58;;;14.80;;
26413;SDS011;14108;53.668;10.288;2022-11-15T09:37:24;23.77;;;14.50;;
26413;SDS011;14108;53.668;10.288;2022-11-15T09:39:51;23.17;;;14.13;;
26413;SDS011;14108;53.668;10.288;2022-11-15T09:42:24;25.15;;;15.15;;
26413;SDS011;14108;53.668;10.288;2022-11-15T09:45:06;24.48;;;14.57;;
26413;SDS011;14108;53.668;10.288;2022-11-15T09:47:49;25.58;;;15.18;;
26413;SDS011;14108;53.668;10.288;2022-11-15T09:50:35;23.45;;;14.07;;
26413;SDS011;14108;53.668;10.288;2022-11-15T09:53:08;26.62;;;15.80;;
26413;SDS011;14108;53.668;10.288;2022-11-15T09:55:38;22.23;;;13.93;;
26413;SDS011;14108;53.668;10.288;2022-11-15T10:00:51;25.08;;;14.65;;
26413;SDS011;14108;53.668;10.288;2022-11-15T10:03:22;23.98;;;14.15;;
26413;SDS011;14108;53.668;10.288;2022-11-15T10:05:54;25.02;;;14.52;;
26413;SDS011;14108;53.668;10.288;2022-11-15T10:08:27;23.50;;;14.32;;
26413;SDS011;14108;53.668;10.288;2022-11-15T10:11:02;24.37;;;14.07;;
26413;SDS011;14108;53.668;10.288;2022-11-15T10:13:33;27.48;;;15.07;;
26413;SDS011;14108;53.668;10.288;2022-11-15T10:16:16;24.20;;;14.70;;
26413;SDS011;14108;53.668;10.288;2022-11-15T10:18:54;22.50;;;14.23;;
26413;SDS011;14108;53.668;10.288;2022-11-15T10:21:29;22.62;;;14.23;;
26413;SDS011;14108;53.668;10.288;2022-11-15T10:24:09;20.62;;;13.15;;
26413;SDS011;14108;53.668;10.288;2022-11-15T10:26:38;26.20;;;14.00;;
26413;SDS011;14108;53.668;10.288;2022-11-15T10:29:11;21.35;;;13.27;;
26413;SDS011;14108;53.668;10.288;2022-11-15T10:31:54;24.23;;;14.38;;
26413;SDS011;14108;53.668;10.288;2022-11-15T10:34:22;20.55;;;14.00;;
26413;SDS011;14108;53.668;10.288;2022-11-15T10:36:54;21.67;;;13.18;;
26413;SDS011;14108;53.668;10.288;2022-11-15T10:39:22;22.92;;;12.95;;
26413;SDS011;14108;53.668;10.288;2022-11-15T10:41:50;22.02;;;13.82;;
26413;SDS011;14108;53.668;10.288;2022-11-15T10:44:21;20.67;;;12.37;;
26413;SDS011;14108;53.668;10.288;2022-11-15T10:47:04;23.75;;;13.13;;
26413;SDS011;14108;53.668;10.288;2022-11-15T10:50:06;23.87;;;13.10;;
26413;SDS011;14108;53.668;10.288;2022-11-15T10:52:52;23.38;;;14.40;;
26413;SDS011;14108;53.668;10.288;2022-11-15T10:55:22;24.30;;;14.23;;
26413;SDS011;14108;53.668;10.288;2022-11-15T10:57:53;22.40;;;13.43;;
26413;SDS011;14108;53.668;10.288;2022-11-15T11:00:27;22.75;;;13.00;;
26413;SDS011;14108;53.668;10.288;2022-11-15T11:03:00;21.73;;;12.65;;
26413;SDS011;14108;53.668;10.288;2022-11-15T11:05:30;20.85;;;12.63;;
26413;SDS011;14108;53.668;10.288;2022-11-15T11:08:00;21.08;;;13.43;;
26413;SDS011;14108;53.668;10.288;2022-11-15T11:10:29;23.80;;;12.50;;
26413;SDS011;14108;53.668;10.288;2022-11-15T11:13:12;21.75;;;13.55;;
26413;SDS011;14108;53.668;10.288;2022-11-15T11:15:40;21.60;;;13.38;;
26413;SDS011;14108;53.668;10.288;2022-11-15T11:18:13;21.40;;;13.32;;
26413;SDS011;14108;53.668;10.288;2022-11-15T11:23:19;24.23;;;14.27;;
26413;SDS011;14108;53.668;10.288;2022-11-15T11:26:00;20.77;;;12.35;;
26413;SDS011;14108;53.668;10.288;2022-11-15T11:28:40;22.73;;;12.50;;
26413;SDS011;14108;53.668;10.288;2022-11-15T11:31:18;20.40;;;12.93;;
26413;SDS011;14108;53.668;10.288;2022-11-15T11:33:55;22.83;;;13.43;;
26413;SDS011;14108;53.668;10.288;2022-11-15T11:36:32;21.58;;;12.68;;
26413;SDS011;14108;53.668;10.288;2022-11-15T11:39:09;21.80;;;13.20;;
26413;SDS011;14108;53.668;10.288;2022-11-15T11:41:52;20.25;;;12.75;;
26413;SDS011;14108;53.668;10.288;2022-11-15T11:44:28;20.40;;;12.75;;
26413;SDS011;14108;53.668;10.288;2022-11-15T11:47:00;20.50;;;11.55;;
26413;SDS011;14108;53.668;10.288;2022-11-15T11:49:34;18.30;;;12.15;;
26413;SDS011;14108;53.668;10.288;2022-11-15T11:52:09;18.50;;;11.85;;
26413;SDS011;14108;53.668;10.288;2022-11-15T11:54:42;22.98;;;12.90;;
26413;SDS011;14108;53.668;10.288;2022-11-15T11:57:21;21.42;;;11.50;;
26413;SDS011;14108;53.668;10.288;2022-11-15T11:59:56;18.98;;;11.70;;
26413;SDS011;14108;53.668;10.288;2022-11-15T12:02:30;19.02;;;11.80;;
26413;SDS011;14108;53.668;10.288;2022-11-15T12:05:05;20.00;;;11.83;;
26413;SDS011;14108;53.668;10.288;2022-11-15T12:07:39;18.85;;;12.02;;
26413;SDS011;14108;53.668;10.288;2022-11-15T12:10:18;18.40;;;12.07;;
26413;SDS011;14108;53.668;10.288;2022-11-15T12:12:50;16.75;;;11.27;;
26413;SDS011;14108;53.668;10.288;2022-11-15T12:15:23;16.30;;;10.52;;
26413;SDS011;14108;53.668;10.288;2022-11-15T12:17:54;16.98;;;10.52;;
26413;SDS011;14108;53.668;10.288;2022-11-15T12:20:23;17.35;;;10.73;;
26413;SDS011;14108;53.668;10.288;2022-11-15T12:22:53;16.98;;;10.48;;
26413;SDS011;14108;53.668;10.288;2022-11-15T12:25:25;15.35;;;10.40;;
26413;SDS011;14108;53.668;10.288;2022-11-15T12:27:57;17.65;;;10.00;;
26413;SDS011;14108;53.668;10.288;2022-11-15T12:30:43;17.60;;;11.55;;
26413;SDS011;14108;53.668;10.288;2022-11-15T12:33:29;16.80;;;11.27;;
26413;SDS011;14108;53.668;10.288;2022-11-15T12:35:59;16.97;;;10.53;;
26413;SDS011;14108;53.668;10.288;2022-11-15T12:41:19;18.73;;;10.75;;
26413;SDS011;14108;53.668;10.288;2022-11-15T12:43:48;18.35;;;10.70;;
26413;SDS011;14108;53.668;10.288;2022-11-15T12:46:20;17.95;;;10.60;;
26413;SDS011;14108;53.668;10.288;2022-11-15T12:48:52;16.77;;;11.10;;
26413;SDS011;14108;53.668;10.288;2022-11-15T12:57:55;14.40;;;9.80;;
26413;SDS011;14108;53.668;10.288;2022-11-15T13:00:52;12.73;;;9.50;;
26413;SDS011;14108;53.668;10.288;2022-11-15T13:03:24;14.13;;;9.43;;
26413;SDS011;14108;53.668;10.288;2022-11-15T13:05:56;13.68;;;9.70;;
26413;SDS011;14108;53.668;10.288;2022-11-15T13:11:42;16.83;;;9.48;;
26413;SDS011;14108;53.668;10.288;2022-11-15T13:20:19;13.93;;;9.13;;
26413;SDS011;14108;53.668;10.288;2022-11-15T13:22:52;15.40;;;10.32;;
26413;SDS011;14108;53.668;10.288;2022-11-15T13:25:38;14.82;;;9.15;;
26413;SDS011;14108;53.668;10.288;2022-11-15T13:28:33;14.18;;;8.77;;
26413;SDS011;14108;53.668;10.288;2022-11-15T13:31:16;14.52;;;9.23;;
26413;SDS011;14108;53.668;10.288;2022-11-15T13:33:55;13.35;;;9.02;;
26413;SDS011;14108;53.668;10.288;2022-11-15T13:36:26;15.90;;;9.07;;
26413;SDS011;14108;53.668;10.288;2022-11-15T13:38:57;11.93;;;8.32;;
26413;SDS011;14108;53.668;10.288;2022-11-15T13:41:27;17.67;;;9.70;;
26413;SDS011;14108;53.668;10.288;2022-11-15T13:43:57;15.55;;;9.70;;
26413;SDS011;14108;53.668;10.288;2022-11-15T13:46:26;13.73;;;9.13;;
26413;SDS011;14108;53.668;10.288;2022-11-15T13:48:55;13.62;;;9.30;;
26413;SDS011;14108;53.668;10.288;2022-11-15T13:51:26;14.23;;;9.13;;
26413;SDS011;14108;53.668;10.288;2022-11-15T13:54:05;12.85;;;8.32;;
26413;SDS011;14108;53.668;10.288;2022-11-15T13:56:38;15.80;;;9.82;;
26413;SDS011;14108;53.668;10.288;2022-11-15T13:59:10;17.30;;;9.00;;
26413;SDS011;14108;53.668;10.288;2022-11-15T14:01:41;13.68;;;8.50;;
26413;SDS011;14108;53.668;10.288;2022-11-15T14:04:09;11.52;;;8.35;;
26413;SDS011;14108;53.668;10.288;2022-11-15T14:06:43;14.52;;;8.75;;
26413;SDS011;14108;53.668;10.288;2022-11-15T14:11:59;12.73;;;8.45;;
26413;SDS011;14108;53.668;10.288;2022-11-15T14:14:28;13.13;;;9.07;;
26413;SDS011;14108;53.668;10.288;2022-11-15T14:16:57;14.57;;;9.90;;
26413;SDS011;14108;53.668;10.288;2022-11-15T14:19:38;13.65;;;8.75;;
26413;SDS011;14108;53.668;10.288;2022-11-15T14:22:10;13.25;;;8.77;;
26413;SDS011;14108;53.668;10.288;2022-11-15T14:24:43;17.65;;;9.02;;
26413;SDS011;14108;53.668;10.288;2022-11-15T14:27:20;15.73;;;9.48;;
26413;SDS011;14108;53.668;10.288;2022-11-15T14:29:49;14.15;;;8.32;;
26413;SDS011;14108;53.668;10.288;2022-11-15T14:32:18;12.05;;;8.40;;
26413;SDS011;14108;53.668;10.288;2022-11-15T14:34:47;13.25;;;8.02;;
26413;SDS011;14108;53.668;10.288;2022-11-15T14:37:24;13.55;;;8.95;;
26413;SDS011;14108;53.668;10.288;2022-11-15T14:39:54;13.02;;;8.98;;
26413;SDS011;14108;53.668;10.288;2022-11-15T14:42:22;15.18;;;9.50;;
26413;SDS011;14108;53.668;10.288;2022-11-15T14:44:49;16.77;;;8.88;;
26413;SDS011;14108;53.668;10.288;2022-11-15T14:47:17;14.65;;;9.50;;
26413;SDS011;14108;53.668;10.288;2022-11-15T14:49:45;15.23;;;8.85;;
26413;SDS011;14108;53.668;10.288;2022-11-15T14:52:26;14.30;;;9.48;;
26413;SDS011;14108;53.668;10.288;2022-11-15T14:54:54;14.65;;;9.15;;
26413;SDS011;14108;53.668;10.288;2022-11-15T14:57:23;14.73;;;8.88;;
26413;SDS011;14108;53.668;10.288;2022-11-15T14:59:51;14.00;;;8.82;;
26413;SDS011;14108;53.668;10.288;2022-11-15T15:02:18;16.17;;;9.18;;
26413;SDS011;14108;53.668;10.288;2022-11-15T15:04:47;16.52;;;9.23;;
26413;SDS011;14108;53.668;10.288;2022-11-15T15:07:15;17.83;;;9.63;;